createdAt,value
2022-12-08T00:01:18.003Z,18.73
2022-12-08T00:03:45.456Z,14.57
2022-12-08T00:06:51.895Z,16.30
2022-12-08T00:09:24.909Z,13.80
2022-12-08T00:11:57.861Z,16.67
2022-12-08T00:14:29.715Z,16.00
2022-12-08T00:16:57.848Z,15.55
2022-12-08T00:19:25.213Z,13.93
2022-12-08T00:21:52.963Z,15.15
2022-12-08T00:24:20.541Z,13.85
2022-12-08T00:26:47.777Z,13.77
2022-12-08T00:29:17.504Z,14.68
2022-12-08T00:31:45.266Z,12.63
2022-12-08T00:34:13.981Z,16.77
2022-12-08T00:40:46.461Z,11.70
2022-12-08T00:43:44.345Z,12.68
2022-12-08T00:46:12.564Z,13.75
2022-12-08T00:48:39.519Z,15.18
2022-12-08T00:51:06.629Z,13.73
2022-12-08T00:53:34.033Z,12.90
2022-12-08T00:56:01.015Z,17.77
2022-12-08T00:58:30.390Z,13.55
2022-12-08T01:00:58.741Z,16.25
2022-12-08T01:03:26.463Z,13.32
2022-12-08T01:05:54.330Z,14.73
2022-12-08T01:08:21.400Z,17.67
2022-12-08T01:10:48.528Z,14.05
2022-12-08T01:13:15.650Z,13.93
2022-12-08T01:15:43.314Z,12.50
2022-12-08T01:18:10.488Z,14.48
2022-12-08T01:20:39.570Z,15.05
2022-12-08T01:23:07.436Z,14.65
2022-12-08T01:25:35.191Z,16.48
2022-12-08T01:28:02.214Z,13.30
2022-12-08T01:30:29.555Z,15.77
2022-12-08T01:32:56.837Z,13.63
2022-12-08T01:35:23.768Z,13.40
2022-12-08T01:47:18.679Z,12.38
2022-12-08T01:49:48.568Z,16.25
2022-12-08T01:52:23.436Z,14.93
2022-12-08T01:55:12.235Z,14.20
2022-12-08T01:57:45.363Z,15.45
2022-12-08T02:00:15.849Z,14.77
2022-12-08T02:02:58.922Z,13.50
2022-12-08T02:05:27.850Z,15.80
2022-12-08T02:07:55.065Z,14.10
2022-12-08T02:10:23.196Z,14.77
2022-12-08T02:12:52.001Z,12.52
2022-12-08T02:15:19.132Z,15.13
2022-12-08T02:18:07.599Z,14.13
2022-12-08T02:20:53.077Z,13.00
2022-12-08T02:23:24.092Z,19.13
2022-12-08T02:25:54.021Z,15.35
2022-12-08T02:29:02.171Z,12.85
2022-12-08T02:31:49.607Z,20.38
2022-12-08T02:34:28.376Z,14.30
2022-12-08T02:37:01.340Z,17.98
2022-12-08T02:39:51.597Z,14.93
2022-12-08T02:42:28.188Z,13.23
2022-12-08T02:45:02.304Z,16.02
2022-12-08T02:47:29.347Z,12.82
2022-12-08T02:49:56.470Z,12.73
2022-12-08T02:52:23.479Z,14.10
2022-12-08T02:54:58.042Z,13.05
2022-12-08T02:57:43.995Z,16.85
2022-12-08T03:00:18.600Z,13.43
2022-12-08T03:02:54.956Z,13.13
2022-12-08T03:05:38.482Z,12.98
2022-12-08T03:08:38.028Z,15.38
2022-12-08T03:11:31.292Z,13.38
2022-12-08T03:13:59.885Z,14.38
2022-12-08T03:16:27.853Z,14.27
2022-12-08T03:19:09.747Z,18.05
2022-12-08T03:21:36.951Z,16.52
2022-12-08T03:24:06.007Z,15.55
2022-12-08T03:26:49.212Z,15.38
2022-12-08T03:29:16.261Z,15.38
2022-12-08T03:31:49.977Z,20.08
2022-12-08T03:36:44.842Z,29.00
2022-12-08T03:39:11.855Z,16.77
2022-12-08T03:41:38.792Z,13.02
2022-12-08T03:44:05.946Z,15.93
2022-12-08T03:46:34.001Z,14.27
2022-12-08T03:49:01.305Z,12.57
2022-12-08T03:51:28.486Z,15.65
2022-12-08T03:53:55.659Z,17.50
2022-12-08T03:56:28.261Z,15.15
2022-12-08T03:58:55.620Z,15.98
2022-12-08T04:01:22.882Z,19.10
2022-12-08T04:03:50.080Z,18.58
2022-12-08T04:06:17.229Z,15.32
2022-12-08T04:08:44.276Z,15.57
2022-12-08T04:11:11.271Z,14.82
2022-12-08T04:13:39.128Z,15.70
2022-12-08T04:16:06.525Z,15.93
2022-12-08T04:18:34.102Z,18.30
2022-12-08T04:21:01.292Z,14.70
2022-12-08T04:23:28.338Z,16.13
2022-12-08T04:25:55.302Z,16.48
2022-12-08T04:28:23.525Z,15.52
2022-12-08T04:30:50.679Z,13.82
2022-12-08T04:33:17.655Z,18.27
2022-12-08T04:35:44.804Z,15.55
2022-12-08T04:38:11.832Z,15.00
2022-12-08T04:40:38.896Z,15.82
2022-12-08T04:43:05.985Z,16.58
2022-12-08T04:45:33.069Z,19.02
2022-12-08T04:48:01.853Z,16.60
2022-12-08T04:50:28.897Z,17.42
2022-12-08T04:52:57.131Z,19.65
2022-12-08T04:55:24.121Z,17.38
2022-12-08T04:57:51.260Z,15.73
2022-12-08T05:00:18.573Z,15.95
2022-12-08T05:02:45.655Z,16.20
2022-12-08T05:05:12.736Z,14.88
2022-12-08T05:07:39.816Z,17.05
2022-12-08T05:10:07.603Z,17.00
2022-12-08T05:12:34.679Z,17.33
2022-12-08T05:15:01.695Z,16.92
2022-12-08T05:17:28.770Z,20.48
2022-12-08T05:19:55.850Z,16.52
2022-12-08T05:22:22.937Z,19.45
2022-12-08T05:24:51.184Z,16.17
2022-12-08T05:27:18.249Z,19.20
2022-12-08T05:29:45.322Z,20.45
2022-12-08T05:32:12.337Z,16.80
2022-12-08T05:34:39.395Z,17.02
2022-12-08T05:37:06.479Z,31.75
2022-12-08T05:39:33.559Z,21.73
2022-12-08T05:42:00.745Z,18.35
2022-12-08T05:44:28.075Z,17.10
2022-12-08T05:46:55.109Z,18.35
2022-12-08T05:49:22.257Z,18.90
2022-12-08T05:51:49.316Z,18.70
2022-12-08T05:54:16.427Z,16.05
2022-12-08T05:56:43.714Z,15.60
2022-12-08T05:59:10.709Z,16.60
2022-12-08T06:01:37.882Z,19.77
2022-12-08T06:04:05.290Z,18.20
2022-12-08T06:06:34.345Z,20.30
2022-12-08T06:09:03.748Z,16.77
2022-12-08T06:11:31.187Z,20.48
2022-12-08T06:13:59.038Z,18.50
2022-12-08T06:16:26.549Z,16.90
2022-12-08T06:18:53.718Z,15.75
2022-12-08T06:21:20.757Z,16.20
2022-12-08T06:23:49.845Z,20.00
2022-12-08T06:26:17.381Z,17.52
2022-12-08T06:28:44.611Z,17.05
2022-12-08T06:31:19.101Z,18.52
2022-12-08T06:33:46.402Z,16.77
2022-12-08T06:36:14.328Z,20.15
2022-12-08T06:38:43.560Z,17.75
2022-12-08T06:41:11.182Z,17.83
2022-12-08T06:43:38.380Z,19.48
2022-12-08T06:46:06.470Z,15.23
2022-12-08T06:48:33.457Z,15.18
2022-12-08T06:51:08.377Z,15.45
2022-12-08T06:53:35.397Z,17.40
2022-12-08T06:56:02.464Z,16.65
2022-12-08T06:58:29.626Z,13.57
2022-12-08T07:00:56.703Z,19.15
2022-12-08T07:03:23.759Z,17.13
2022-12-08T07:05:50.745Z,18.75
2022-12-08T07:08:17.776Z,16.30
2022-12-08T07:10:44.797Z,16.83
2022-12-08T07:13:11.770Z,20.27
2022-12-08T07:15:38.685Z,18.20
2022-12-08T07:18:07.555Z,16.05
2022-12-08T07:20:34.565Z,15.50
2022-12-08T07:23:01.536Z,17.20
2022-12-08T07:25:28.621Z,16.50
2022-12-08T07:27:55.615Z,16.38
2022-12-08T07:30:22.630Z,17.40
2022-12-08T07:32:50.284Z,19.40
2022-12-08T07:35:17.559Z,15.88
2022-12-08T07:37:44.582Z,19.45
2022-12-08T07:40:13.389Z,18.05
2022-12-08T07:42:40.565Z,15.63
2022-12-08T07:45:08.416Z,19.23
2022-12-08T07:47:35.628Z,17.73
2022-12-08T07:50:05.591Z,20.25
2022-12-08T07:52:35.280Z,18.40
2022-12-08T07:55:02.534Z,14.95
2022-12-08T07:57:29.766Z,17.40
2022-12-08T08:00:01.590Z,18.80
2022-12-08T08:02:38.702Z,18.67
2022-12-08T08:05:06.564Z,18.77
2022-12-08T08:07:33.615Z,15.73
2022-12-08T08:10:00.871Z,15.60
2022-12-08T08:12:32.387Z,16.10
2022-12-08T08:15:03.138Z,16.27
2022-12-08T08:17:37.907Z,15.52
2022-12-08T08:20:07.214Z,16.63
2022-12-08T08:22:36.842Z,16.65
2022-12-08T08:25:05.252Z,13.52
2022-12-08T08:27:32.250Z,18.00
2022-12-08T08:29:59.219Z,13.85
2022-12-08T08:32:26.403Z,15.57
2022-12-08T08:34:53.375Z,16.75
2022-12-08T08:37:20.551Z,15.82
2022-12-08T08:39:49.507Z,18.15
2022-12-08T08:42:16.451Z,14.73
2022-12-08T08:44:43.470Z,14.88
2022-12-08T08:47:10.542Z,17.80
2022-12-08T08:49:37.485Z,14.95
2022-12-08T08:52:05.061Z,14.98
2022-12-08T08:54:32.230Z,14.00
2022-12-08T08:57:00.041Z,17.90
2022-12-08T08:59:27.320Z,15.18
2022-12-08T09:01:54.928Z,16.50
2022-12-08T09:04:22.836Z,17.30
2022-12-08T09:06:50.054Z,16.35
2022-12-08T09:09:17.244Z,15.13
2022-12-08T09:11:44.299Z,14.80
2022-12-08T09:14:17.296Z,16.67
2022-12-08T09:16:44.391Z,14.95
2022-12-08T09:19:11.407Z,17.02
2022-12-08T09:21:39.103Z,15.63
2022-12-08T09:24:06.624Z,18.17
2022-12-08T09:26:33.664Z,22.75
2022-12-08T09:29:00.633Z,15.15
2022-12-08T09:31:27.980Z,18.27
2022-12-08T09:33:55.413Z,19.23
2022-12-08T09:36:22.518Z,21.98
2022-12-08T09:38:51.126Z,17.42
2022-12-08T09:41:40.639Z,16.15
2022-12-08T09:44:40.793Z,23.33
2022-12-08T09:47:22.198Z,19.13
2022-12-08T09:50:18.121Z,21.63
2022-12-08T09:53:03.980Z,19.67
2022-12-08T09:56:05.612Z,18.83
2022-12-08T09:58:54.728Z,15.88
2022-12-08T10:01:22.689Z,16.20
2022-12-08T10:03:49.872Z,14.82
2022-12-08T10:06:25.184Z,14.38
2022-12-08T10:09:15.244Z,15.98
2022-12-08T10:12:08.623Z,16.00
2022-12-08T10:14:39.094Z,15.02
2022-12-08T10:17:14.545Z,15.82
2022-12-08T10:19:41.910Z,16.52
2022-12-08T10:22:21.788Z,14.73
2022-12-08T10:24:55.901Z,18.13
2022-12-08T10:27:23.051Z,11.73
2022-12-08T10:29:50.101Z,18.17
2022-12-08T10:32:24.320Z,16.70
2022-12-08T10:35:03.311Z,15.88
2022-12-08T10:37:30.414Z,17.85
2022-12-08T10:40:14.872Z,17.65
2022-12-08T10:42:49.431Z,15.23
2022-12-08T10:45:28.249Z,18.33
2022-12-08T10:47:59.564Z,19.02
2022-12-08T10:50:30.866Z,16.73
2022-12-08T10:53:07.940Z,16.02
2022-12-08T10:55:49.420Z,16.20
2022-12-08T10:58:34.086Z,19.45
2022-12-08T11:01:11.430Z,18.75
2022-12-08T11:04:02.236Z,18.65
2022-12-08T11:06:29.415Z,17.63
2022-12-08T11:08:58.385Z,15.20
2022-12-08T11:11:51.410Z,16.05
2022-12-08T11:14:30.228Z,14.27
2022-12-08T11:17:08.330Z,18.20
2022-12-08T11:19:39.496Z,14.25
2022-12-08T11:22:35.110Z,13.77
2022-12-08T11:25:08.119Z,13.25
2022-12-08T11:27:39.559Z,17.88
2022-12-08T11:30:17.340Z,15.85
2022-12-08T11:32:45.836Z,19.05
2022-12-08T11:35:25.862Z,18.20
2022-12-08T11:38:21.508Z,16.90
2022-12-08T11:43:34.787Z,16.95
2022-12-08T11:46:11.476Z,15.45
2022-12-08T11:48:41.483Z,18.13
2022-12-08T11:51:14.696Z,22.38
2022-12-08T11:54:11.847Z,20.90
2022-12-08T11:56:39.617Z,19.58
2022-12-08T11:59:27.818Z,18.63
2022-12-08T12:01:55.080Z,35.63
2022-12-08T12:04:41.130Z,17.63
2022-12-08T12:07:46.120Z,15.25
2022-12-08T12:10:35.531Z,14.35
2022-12-08T12:13:24.473Z,17.15
2022-12-08T12:16:24.318Z,17.73
2022-12-08T12:19:02.689Z,17.98
2022-12-08T12:21:32.676Z,16.70
2022-12-08T12:24:05.403Z,16.20
2022-12-08T12:26:36.467Z,14.25
2022-12-08T12:29:11.555Z,15.10
2022-12-08T12:31:43.586Z,14.75
2022-12-08T12:34:25.253Z,17.23
2022-12-08T12:36:57.687Z,20.50
2022-12-08T12:39:30.566Z,13.75
2022-12-08T12:42:02.131Z,12.35
2022-12-08T12:44:29.221Z,13.70
2022-12-08T12:46:58.692Z,15.73
2022-12-08T12:49:43.917Z,12.57
2022-12-08T12:52:18.966Z,12.65
2022-12-08T12:55:08.931Z,13.90
2022-12-08T12:57:37.818Z,11.15
2022-12-08T13:00:05.263Z,11.00
2022-12-08T13:02:46.084Z,12.70
2022-12-08T13:05:31.980Z,11.07
2022-12-08T13:08:16.083Z,12.35
2022-12-08T13:11:09.825Z,11.63
2022-12-08T13:13:38.177Z,11.80
2022-12-08T13:16:18.539Z,9.75
2022-12-08T13:18:50.711Z,13.27
2022-12-08T13:21:22.679Z,11.90
2022-12-08T13:24:10.673Z,10.60
2022-12-08T13:27:07.959Z,11.65
2022-12-08T13:29:35.852Z,10.70
2022-12-08T13:32:10.161Z,9.75
2022-12-08T13:34:41.728Z,10.07
2022-12-08T13:37:11.528Z,7.78
2022-12-08T13:39:55.466Z,12.55
2022-12-08T13:42:29.880Z,9.40
2022-12-08T13:45:27.845Z,8.63
2022-12-08T13:48:26.631Z,11.65
2022-12-08T13:57:04.012Z,6.45
2022-12-08T13:59:34.118Z,5.18
2022-12-08T14:02:17.241Z,7.90
2022-12-08T14:05:20.321Z,5.95
2022-12-08T14:07:50.437Z,6.38
2022-12-08T14:10:28.196Z,6.15
2022-12-08T14:13:03.360Z,5.40
2022-12-08T14:15:39.006Z,7.93
2022-12-08T14:18:29.036Z,6.18
2022-12-08T14:21:21.427Z,8.18
2022-12-08T14:23:49.519Z,6.10
2022-12-08T14:26:16.505Z,5.68
2022-12-08T14:28:45.224Z,5.80
2022-12-08T14:31:14.703Z,7.47
2022-12-08T14:33:42.012Z,8.18
2022-12-08T14:36:12.480Z,8.95
2022-12-08T14:38:39.556Z,11.18
2022-12-08T14:41:07.908Z,11.80
2022-12-08T14:43:37.980Z,11.88
2022-12-08T14:46:18.637Z,8.38
2022-12-08T14:48:45.875Z,7.90
2022-12-08T14:51:21.465Z,6.55
2022-12-08T14:54:13.416Z,7.07
2022-12-08T14:56:40.329Z,11.02
2022-12-08T14:59:19.954Z,10.10
2022-12-08T15:01:47.521Z,11.90
2022-12-08T15:04:17.175Z,9.90
2022-12-08T15:06:57.044Z,8.25
2022-12-08T15:09:32.209Z,9.93
2022-12-08T15:12:08.410Z,8.15
2022-12-08T15:14:42.392Z,7.30
2022-12-08T15:17:44.773Z,8.65
2022-12-08T15:20:41.141Z,7.65
2022-12-08T15:23:21.003Z,8.70
2022-12-08T15:25:48.742Z,9.10
2022-12-08T15:28:17.735Z,10.55
2022-12-08T15:30:44.930Z,9.13
2022-12-08T15:33:11.903Z,9.02
2022-12-08T15:35:40.942Z,6.60
2022-12-08T15:38:14.039Z,8.57
2022-12-08T15:40:41.053Z,7.40
2022-12-08T15:43:10.947Z,7.10
2022-12-08T15:45:37.898Z,6.88
2022-12-08T15:48:05.155Z,6.03
2022-12-08T15:50:32.137Z,8.27
2022-12-08T15:52:59.142Z,7.57
2022-12-08T15:55:26.081Z,7.50
2022-12-08T15:58:51.244Z,8.55
2022-12-08T16:00:52.382Z,6.28
2022-12-08T16:04:13.088Z,8.45
2022-12-08T16:07:12.475Z,6.38
2022-12-08T16:09:12.208Z,6.72
2022-12-08T16:12:10.132Z,8.82
2022-12-08T16:17:25.145Z,6.95
2022-12-08T16:19:52.490Z,8.48
2022-12-08T16:25:19.247Z,9.77
2022-12-08T16:28:01.332Z,9.82
2022-12-08T16:30:30.366Z,10.82
2022-12-08T16:32:57.457Z,7.15
2022-12-08T16:35:25.371Z,9.07
2022-12-08T16:37:55.468Z,7.90
2022-12-08T16:40:22.410Z,8.43
2022-12-08T16:42:50.300Z,10.63
2022-12-08T16:45:29.225Z,8.63
2022-12-08T16:47:58.076Z,11.25
2022-12-08T16:50:32.851Z,9.65
2022-12-08T16:53:03.599Z,9.10
2022-12-08T16:55:32.745Z,9.13
2022-12-08T16:57:59.949Z,10.48
2022-12-08T17:00:28.217Z,10.05
2022-12-08T17:02:55.448Z,7.18
2022-12-08T17:05:23.777Z,11.10
2022-12-08T17:07:52.714Z,8.07
2022-12-08T17:10:23.121Z,10.88
2022-12-08T17:12:50.342Z,10.27
2022-12-08T17:15:19.213Z,13.02
2022-12-08T17:17:46.208Z,14.05
2022-12-08T17:20:18.787Z,16.20
2022-12-08T17:22:45.986Z,12.07
2022-12-08T17:25:12.999Z,15.38
2022-12-08T17:27:42.492Z,14.45
2022-12-08T17:30:11.712Z,11.55
2022-12-08T17:32:38.931Z,12.05
2022-12-08T17:35:07.032Z,13.52
2022-12-08T17:37:34.562Z,15.02
2022-12-08T17:40:01.653Z,17.92
2022-12-08T17:42:28.729Z,13.43
2022-12-08T17:44:55.743Z,10.10
2022-12-08T17:47:23.020Z,11.57
2022-12-08T17:49:50.034Z,12.60
2022-12-08T17:52:17.056Z,13.50
2022-12-08T17:54:44.184Z,13.30
2022-12-08T17:57:11.166Z,11.95
2022-12-08T17:59:38.315Z,11.68
2022-12-08T18:02:05.521Z,11.32
2022-12-08T18:04:32.637Z,11.65
2022-12-08T18:07:01.334Z,17.17
2022-12-08T18:09:30.601Z,16.35
2022-12-08T18:11:57.682Z,18.05
2022-12-08T18:14:24.703Z,17.85
2022-12-08T18:16:51.862Z,20.65
2022-12-08T18:19:19.169Z,18.88
2022-12-08T18:21:46.111Z,18.25
2022-12-08T18:24:18.875Z,14.77
2022-12-08T18:26:46.080Z,14.25
2022-12-08T18:29:13.222Z,15.98
2022-12-08T18:31:40.274Z,15.63
2022-12-08T18:34:07.360Z,17.67
2022-12-08T18:36:34.863Z,18.90
2022-12-08T18:39:07.251Z,18.20
2022-12-08T18:41:37.546Z,14.30
2022-12-08T18:44:04.743Z,15.15
2022-12-08T18:46:31.828Z,15.27
2022-12-08T18:49:03.446Z,15.73
2022-12-08T18:51:30.603Z,16.67
2022-12-08T18:53:58.456Z,16.73
2022-12-08T18:56:27.096Z,17.30
2022-12-08T18:59:02.815Z,17.38
2022-12-08T19:01:32.978Z,20.20
2022-12-08T19:06:53.839Z,15.75
2022-12-08T19:09:22.713Z,17.05
2022-12-08T19:11:49.891Z,16.20
2022-12-08T19:14:18.400Z,16.27
2022-12-08T19:16:50.808Z,18.42
2022-12-08T19:19:18.104Z,17.42
2022-12-08T19:21:46.666Z,19.85
2022-12-08T19:24:13.916Z,18.13
2022-12-08T19:26:41.002Z,23.40
2022-12-08T19:29:08.015Z,20.27
2022-12-08T19:31:35.134Z,20.00
2022-12-08T19:34:02.518Z,20.90
2022-12-08T19:36:43.740Z,23.20
2022-12-08T19:39:34.746Z,22.08
2022-12-08T19:42:20.594Z,18.90
2022-12-08T19:44:55.255Z,22.77
2022-12-08T19:47:26.257Z,16.30
2022-12-08T19:49:55.119Z,21.20
2022-12-08T19:52:22.605Z,19.02
2022-12-08T19:54:49.695Z,18.63
2022-12-08T19:57:16.791Z,18.45
2022-12-08T19:59:45.249Z,21.75
2022-12-08T20:02:12.646Z,17.60
2022-12-08T20:04:39.914Z,19.00
2022-12-08T20:07:07.072Z,20.40
2022-12-08T20:09:34.102Z,18.73
2022-12-08T20:12:01.119Z,19.60
2022-12-08T20:14:28.172Z,19.65
2022-12-08T20:16:55.221Z,18.60
2022-12-08T20:19:22.475Z,18.23
2022-12-08T20:21:49.804Z,16.80
2022-12-08T20:24:17.504Z,21.35
2022-12-08T20:26:44.634Z,21.88
2022-12-08T20:29:12.179Z,21.77
2022-12-08T20:31:39.446Z,23.20
2022-12-08T20:34:06.720Z,19.00
2022-12-08T20:36:33.741Z,19.48
2022-12-08T20:39:00.906Z,18.33
2022-12-08T20:41:28.098Z,19.30
2022-12-08T20:43:55.168Z,18.67
2022-12-08T20:46:24.561Z,21.38
2022-12-08T20:48:51.872Z,21.13
2022-12-08T20:51:19.563Z,19.92
2022-12-08T20:53:47.630Z,20.20
2022-12-08T20:56:19.427Z,21.98
2022-12-08T20:58:48.608Z,21.90
2022-12-08T21:01:17.212Z,19.92
2022-12-08T21:03:45.294Z,24.55
2022-12-08T21:06:12.448Z,23.17
2022-12-08T21:08:39.823Z,26.08
2022-12-08T21:11:07.413Z,24.60
2022-12-08T21:13:34.656Z,27.88
2022-12-08T21:16:01.911Z,27.27
2022-12-08T21:18:31.257Z,24.23
2022-12-08T21:21:03.286Z,28.05
2022-12-08T21:23:30.459Z,25.80
2022-12-08T21:25:57.705Z,23.85
2022-12-08T21:28:24.724Z,32.40
2022-12-08T21:30:51.917Z,28.08
2022-12-08T21:33:19.712Z,27.25
2022-12-08T21:35:49.877Z,23.63
2022-12-08T21:38:17.126Z,23.33
2022-12-08T21:40:44.251Z,22.65
2022-12-08T21:43:12.139Z,17.85
2022-12-08T21:45:39.697Z,19.15
2022-12-08T21:48:11.413Z,30.73
2022-12-08T21:50:39.375Z,28.23
2022-12-08T21:53:06.769Z,22.15
2022-12-08T21:55:33.854Z,21.48
2022-12-08T21:58:02.328Z,27.55
2022-12-08T22:00:31.421Z,25.13
2022-12-08T22:02:59.839Z,22.83
2022-12-08T22:05:27.664Z,26.75
2022-12-08T22:07:54.681Z,22.75
2022-12-08T22:10:23.097Z,25.35
2022-12-08T22:12:50.425Z,26.35
2022-12-08T22:15:18.002Z,24.77
2022-12-08T22:17:47.657Z,26.95
2022-12-08T22:20:15.132Z,27.95
2022-12-08T22:22:42.713Z,23.92
2022-12-08T22:25:12.146Z,22.52
2022-12-08T22:27:41.014Z,21.35
2022-12-08T22:30:08.924Z,26.15
2022-12-08T22:32:36.590Z,21.48
2022-12-08T22:35:06.572Z,24.98
2022-12-08T22:37:34.233Z,25.55
2022-12-08T22:40:02.035Z,23.38
2022-12-08T22:42:29.599Z,23.08
2022-12-08T22:44:57.743Z,22.70
2022-12-08T22:47:24.714Z,19.42
2022-12-08T22:49:51.860Z,19.90
2022-12-08T22:52:18.965Z,21.35
2022-12-08T22:54:45.980Z,23.17
2022-12-08T22:57:13.204Z,22.95
2022-12-08T22:59:43.367Z,26.35
2022-12-08T23:02:21.907Z,20.77
2022-12-08T23:04:52.735Z,23.13
2022-12-08T23:07:21.564Z,23.70
2022-12-08T23:09:49.718Z,22.83
2022-12-08T23:12:16.862Z,23.70
2022-12-08T23:14:44.120Z,22.85
2022-12-08T23:17:11.306Z,20.52
2022-12-08T23:19:39.145Z,18.52
2022-12-08T23:22:06.311Z,18.58
2022-12-08T23:24:33.525Z,23.35
2022-12-08T23:27:00.722Z,24.40
2022-12-08T23:29:27.930Z,18.95
2022-12-08T23:31:55.489Z,21.58
2022-12-08T23:34:22.681Z,19.67
2022-12-08T23:36:49.867Z,19.13
2022-12-08T23:39:17.215Z,21.92
2022-12-08T23:41:44.437Z,19.35
2022-12-08T23:44:12.399Z,19.20
2022-12-08T23:46:39.814Z,18.23
2022-12-08T23:49:10.047Z,22.85
2022-12-08T23:51:37.219Z,17.83
2022-12-08T23:54:07.970Z,19.40
2022-12-08T23:56:35.564Z,18.85
2022-12-08T23:59:05.672Z,21.63
